Time;durP1;ratioP1;P1;durP2;ratioP2;P2;SDS_P1;SDS_P2;PMS_P1;PMS_P2;Temp;Humidity;BMP_temperature;BMP_pressure;BME280_temperature;BME280_humidity;BME280_pressure;Samples;Min_cycle;Max_cycle;Signal;HPM_P1;HPM_P2
2021/04/29 00:01:50;;;;;;;12.38;11.13;;;10.80;99.90;;;;;;5068198;28;20048;-74
2021/04/29 00:04:17;;;;;;;14.48;11.43;;;10.60;99.90;;;;;;5070060;28;20110;-74
2021/04/29 00:06:44;;;;;;;13.45;11.57;;;10.50;99.90;;;;;;5069719;28;20052;-75
2021/04/29 00:09:11;;;;;;;18.52;11.90;;;10.30;99.90;;;;;;5069569;28;20143;-74
2021/04/29 00:11:39;;;;;;;15.40;12.30;;;10.10;99.90;;;;;;5069755;28;20052;-74
2021/04/29 00:14:07;;;;;;;13.10;11.68;;;10.00;99.90;;;;;;5068107;28;20045;-74
2021/04/29 00:16:34;;;;;;;16.77;13.80;;;9.90;99.90;;;;;;5068854;28;20113;-75
2021/04/29 00:19:01;;;;;;;18.65;14.65;;;9.80;99.90;;;;;;5064214;28;20044;-76
2021/04/29 00:21:27;;;;;;;16.90;13.65;;;9.80;99.90;;;;;;5063513;28;20139;-75
2021/04/29 00:23:54;;;;;;;22.00;14.32;;;9.70;99.90;;;;;;5059078;28;20069;-75
2021/04/29 00:26:20;;;;;;;17.25;14.60;;;9.70;99.90;;;;;;5076426;28;20052;-76
2021/04/29 00:28:50;;;;;;;17.00;13.98;;;9.60;99.90;;;;;;5089444;28;20055;-76
2021/04/29 00:31:17;;;;;;;18.83;14.25;;;9.50;99.90;;;;;;5071893;28;20056;-77
2021/04/29 00:33:43;;;;;;;19.10;14.07;;;9.50;99.90;;;;;;5083283;28;20412;-76
2021/04/29 00:36:09;;;;;;;19.08;15.15;;;9.40;99.90;;;;;;5039321;28;20049;-77
2021/04/29 00:38:36;;;;;;;23.45;15.55;;;9.40;99.90;;;;;;5068806;28;20063;-76
2021/04/29 00:41:03;;;;;;;20.92;16.85;;;9.30;99.90;;;;;;5069662;28;20277;-75
2021/04/29 00:43:30;;;;;;;20.35;16.52;;;9.30;99.90;;;;;;5069842;28;20072;-75
2021/04/29 00:45:56;;;;;;;21.35;16.52;;;9.30;99.90;;;;;;5069526;28;20135;-75
2021/04/29 00:48:23;;;;;;;20.50;16.48;;;9.30;99.90;;;;;;5069257;28;20052;-75
2021/04/29 00:50:50;;;;;;;23.88;17.65;;;9.40;99.90;;;;;;5067988;28;20052;-75
2021/04/29 00:53:16;;;;;;;21.02;16.50;;;9.20;99.90;;;;;;5068314;28;20052;-74
2021/04/29 00:55:43;;;;;;;17.42;15.57;;;9.20;99.90;;;;;;5069916;28;20048;-75
2021/04/29 00:58:10;;;;;;;18.35;14.52;;;9.20;99.90;;;;;;5068293;28;20513;-74
2021/04/29 01:00:38;;;;;;;18.75;15.32;;;9.20;99.90;;;;;;5035333;28;20075;-74
2021/04/29 01:03:17;;;;;;;20.88;16.15;;;9.20;99.90;;;;;;5068882;28;20134;-74
2021/04/29 01:05:54;;;;;;;18.17;14.55;;;9.10;99.90;;;;;;5056449;28;20052;-74
2021/04/29 01:08:30;;;;;;;21.77;16.50;;;9.10;99.90;;;;;;5071654;28;20062;-75
2021/04/29 01:11:03;;;;;;;23.42;17.13;;;9.00;99.90;;;;;;5070061;28;20063;-75
2021/04/29 01:13:35;;;;;;;24.13;16.98;;;9.00;99.90;;;;;;5065158;28;20508;-75
2021/04/29 01:16:02;;;;;;;19.02;15.77;;;9.00;99.90;;;;;;5067083;28;20079;-75
2021/04/29 01:18:29;;;;;;;18.42;15.90;;;8.90;99.90;;;;;;5067081;28;20207;-75
2021/04/29 01:20:58;;;;;;;18.38;15.75;;;9.00;99.90;;;;;;5049641;28;20055;-75
2021/04/29 01:23:40;;;;;;;20.38;16.00;;;9.00;99.90;;;;;;5068968;28;20056;-75
2021/04/29 01:26:36;;;;;;;16.75;13.57;;;8.90;99.90;;;;;;5068858;28;20060;-75
2021/04/29 01:29:08;;;;;;;18.17;15.20;;;9.00;99.90;;;;;;5064046;28;20389;-75
2021/04/29 01:31:38;;;;;;;18.63;13.73;;;9.10;99.90;;;;;;5065576;28;20052;-75
2021/04/29 01:34:08;;;;;;;17.77;14.43;;;9.00;99.90;;;;;;5068094;28;20114;-75
2021/04/29 01:36:35;;;;;;;19.50;15.85;;;9.00;99.90;;;;;;5068548;28;20053;-75
2021/04/29 01:39:05;;;;;;;18.50;15.10;;;9.00;99.90;;;;;;5067212;28;20547;-75
2021/04/29 01:41:32;;;;;;;21.02;14.45;;;9.00;99.90;;;;;;5067956;28;20055;-75
2021/04/29 01:43:59;;;;;;;23.88;17.20;;;9.00;99.90;;;;;;5052735;28;20049;-75
2021/04/29 01:46:26;;;;;;;24.02;18.80;;;9.10;99.90;;;;;;5030058;28;20686;-75
2021/04/29 01:48:53;;;;;;;23.05;17.02;;;9.10;99.90;;;;;;5064958;28;20105;-75
2021/04/29 01:51:20;;;;;;;27.08;21.98;;;9.00;99.90;;;;;;5066257;28;20059;-75
2021/04/29 01:53:47;;;;;;;29.80;20.95;;;9.10;99.90;;;;;;5047107;28;20513;-75
2021/04/29 01:56:14;;;;;;;25.50;19.27;;;9.00;99.90;;;;;;5043817;28;20041;-75
2021/04/29 01:58:40;;;;;;;27.30;21.45;;;9.00;99.90;;;;;;5059023;28;20132;-75
2021/04/29 02:01:07;;;;;;;30.33;22.60;;;9.00;99.90;;;;;;5065624;28;20075;-75
2021/04/29 02:03:34;;;;;;;28.88;22.00;;;9.00;99.90;;;;;;5066778;28;20139;-75
2021/04/29 02:06:00;;;;;;;30.40;22.17;;;9.00;99.90;;;;;;5065437;28;20276;-75
2021/04/29 02:08:27;;;;;;;31.00;21.45;;;9.00;99.90;;;;;;5067564;28;20060;-75
2021/04/29 02:10:54;;;;;;;31.85;22.15;;;9.00;99.90;;;;;;5066572;28;20131;-74
2021/04/29 02:13:21;;;;;;;33.50;22.00;;;9.00;99.90;;;;;;5067326;28;20520;-75
2021/04/29 02:15:55;;;;;;;30.63;23.58;;;9.10;99.90;;;;;;5058819;28;20052;-74
2021/04/29 02:18:23;;;;;;;25.13;20.02;;;9.20;99.90;;;;;;5066419;28;20054;-75
2021/04/29 02:20:51;;;;;;;24.77;18.75;;;9.20;99.90;;;;;;5065680;28;20048;-74
2021/04/29 02:23:23;;;;;;;25.65;19.92;;;9.20;99.90;;;;;;5067523;28;20148;-75
2021/04/29 02:25:56;;;;;;;29.63;22.25;;;9.10;99.90;;;;;;5066289;28;20492;-75
2021/04/29 02:28:23;;;;;;;29.60;21.15;;;9.20;99.90;;;;;;5065291;28;20049;-75
2021/04/29 02:30:50;;;;;;;31.75;21.98;;;9.30;99.90;;;;;;5066214;28;20055;-75
2021/04/29 02:33:17;;;;;;;33.22;23.17;;;9.30;99.90;;;;;;5049195;28;20128;-75
2021/04/29 02:35:47;;;;;;;28.73;21.92;;;9.30;99.90;;;;;;5066170;28;20058;-74
2021/04/29 02:38:15;;;;;;;28.77;22.55;;;9.30;99.90;;;;;;5072580;28;20051;-74
2021/04/29 02:40:42;;;;;;;30.83;23.85;;;9.30;99.90;;;;;;5066842;28;20048;-75
2021/04/29 02:43:14;;;;;;;34.05;24.40;;;9.30;99.90;;;;;;5048474;28;20071;-75
2021/04/29 02:45:43;;;;;;;35.13;25.13;;;9.30;99.90;;;;;;5065790;28;20530;-75
2021/04/29 02:48:10;;;;;;;32.60;24.63;;;9.30;99.90;;;;;;5066485;28;20151;-75
2021/04/29 02:50:43;;;;;;;36.97;26.65;;;9.30;99.90;;;;;;5065753;28;20621;-74
2021/04/29 02:53:17;;;;;;;33.15;24.90;;;9.40;99.90;;;;;;5048668;28;20056;-75
2021/04/29 02:55:44;;;;;;;37.70;25.05;;;9.40;99.90;;;;;;5067348;28;20619;-75
2021/04/29 02:58:14;;;;;;;35.95;25.77;;;9.40;99.90;;;;;;5048372;28;20591;-75
2021/04/29 03:00:42;;;;;;;35.78;26.15;;;9.40;99.90;;;;;;5047265;28;20059;-75
2021/04/29 03:03:09;;;;;;;34.53;25.15;;;9.40;99.90;;;;;;5046314;28;20061;-74
2021/04/29 03:05:37;;;;;;;37.70;26.75;;;9.30;99.90;;;;;;5045650;28;20480;-75
2021/04/29 03:08:04;;;;;;;39.10;26.77;;;9.40;99.90;;;;;;5065778;28;20086;-75
2021/04/29 03:10:30;;;;;;;41.55;27.73;;;9.30;99.90;;;;;;5066565;28;20045;-75
2021/04/29 03:12:57;;;;;;;40.30;26.42;;;9.30;99.90;;;;;;5066676;28;20090;-75
2021/04/29 03:15:24;;;;;;;38.90;27.45;;;9.20;99.90;;;;;;5067164;28;20053;-75
2021/04/29 03:17:50;;;;;;;41.30;27.92;;;9.20;99.90;;;;;;5066559;28;20045;-75
2021/04/29 03:20:35;;;;;;;35.35;25.70;;;9.20;99.90;;;;;;5066433;28;20060;-74
2021/04/29 03:23:02;;;;;;;39.55;27.50;;;9.20;99.90;;;;;;5067238;28;20102;-74
2021/04/29 03:25:28;;;;;;;40.90;28.88;;;9.10;99.90;;;;;;5057061;28;20123;-74
2021/04/29 03:27:54;;;;;;;36.38;26.73;;;9.10;99.90;;;;;;5046674;28;20056;-75
2021/04/29 03:30:21;;;;;;;36.28;25.58;;;9.20;99.90;;;;;;5046876;28;20081;-74
2021/04/29 03:32:48;;;;;;;35.97;26.60;;;9.20;99.90;;;;;;5047386;28;20055;-74
2021/04/29 03:35:15;;;;;;;40.47;27.70;;;9.30;99.90;;;;;;5067262;28;20559;-74
2021/04/29 03:37:41;;;;;;;37.63;25.38;;;9.40;99.90;;;;;;5031865;28;20053;-74
2021/04/29 03:40:08;;;;;;;36.47;25.23;;;9.30;99.90;;;;;;5048187;28;20060;-74
2021/04/29 03:42:34;;;;;;;34.08;26.25;;;9.30;99.90;;;;;;5066491;28;20079;-74
2021/04/29 03:45:01;;;;;;;35.45;25.08;;;9.20;99.90;;;;;;5064708;28;20164;-74
2021/04/29 03:47:27;;;;;;;37.78;26.88;;;9.20;99.90;;;;;;5065691;28;20055;-74
2021/04/29 03:49:54;;;;;;;37.67;26.30;;;9.20;99.90;;;;;;5070537;28;20506;-74
2021/04/29 03:52:20;;;;;;;39.10;27.75;;;9.20;99.90;;;;;;5050412;28;20493;-75
2021/04/29 03:54:46;;;;;;;36.28;24.70;;;9.20;99.90;;;;;;5062619;28;20049;-75
2021/04/29 03:57:12;;;;;;;36.15;26.92;;;9.30;99.90;;;;;;5031975;28;20040;-75
2021/04/29 03:59:39;;;;;;;34.63;25.40;;;9.30;99.90;;;;;;5066766;28;20087;-75
2021/04/29 04:02:05;;;;;;;41.55;27.58;;;9.30;99.90;;;;;;5048999;28;20528;-75
2021/04/29 04:04:33;;;;;;;40.40;29.27;;;9.10;99.90;;;;;;5049305;28;20156;-75
2021/04/29 04:06:59;;;;;;;39.92;28.92;;;9.20;99.90;;;;;;5063785;28;20079;-75
2021/04/29 04:09:25;;;;;;;47.90;29.17;;;9.20;99.90;;;;;;5064641;28;20041;-75
2021/04/29 04:11:52;;;;;;;41.38;28.45;;;9.20;99.90;;;;;;5065856;28;20052;-75
2021/04/29 04:14:18;;;;;;;39.80;28.17;;;9.30;99.90;;;;;;5066656;28;20052;-74
2021/04/29 04:16:44;;;;;;;41.30;28.75;;;9.30;99.90;;;;;;5064766;28;20147;-74
2021/04/29 04:19:11;;;;;;;42.50;30.67;;;9.20;99.90;;;;;;5065378;28;20040;-75
2021/04/29 04:21:37;;;;;;;43.75;30.10;;;9.30;99.90;;;;;;5064230;28;20052;-74
2021/04/29 04:24:03;;;;;;;45.40;30.48;;;9.40;99.90;;;;;;5066032;28;20641;-74
2021/04/29 04:26:30;;;;;;;43.40;30.95;;;9.40;99.90;;;;;;5065597;28;20044;-74
2021/04/29 04:28:56;;;;;;;43.08;31.45;;;9.40;99.90;;;;;;5065120;28;20052;-74
2021/04/29 04:31:22;;;;;;;43.92;30.08;;;9.50;99.90;;;;;;5064747;28;20071;-75
2021/04/29 04:33:50;;;;;;;45.92;31.20;;;9.40;99.90;;;;;;5066822;28;20428;-74
2021/04/29 04:36:18;;;;;;;41.85;28.65;;;9.40;99.90;;;;;;5050873;28;20115;-74
2021/04/29 04:38:44;;;;;;;48.53;31.88;;;9.50;99.90;;;;;;5067534;28;20427;-73
2021/04/29 04:41:10;;;;;;;47.50;32.70;;;9.40;99.90;;;;;;5068839;28;20056;-74
2021/04/29 04:43:37;;;;;;;42.65;29.65;;;9.40;99.90;;;;;;5044673;28;20045;-74
2021/04/29 04:46:03;;;;;;;39.60;28.50;;;9.40;99.90;;;;;;5049466;28;20144;-74
2021/04/29 04:48:30;;;;;;;43.72;30.60;;;9.30;99.90;;;;;;5065725;28;20080;-74
2021/04/29 04:50:56;;;;;;;45.80;31.52;;;9.40;99.90;;;;;;5060930;28;20054;-74
2021/04/29 04:53:23;;;;;;;45.10;31.42;;;9.40;99.90;;;;;;5070093;28;20072;-74
2021/04/29 04:55:51;;;;;;;45.05;31.83;;;9.40;99.90;;;;;;5072097;28;20060;-74
2021/04/29 04:58:18;;;;;;;46.45;32.00;;;9.50;99.90;;;;;;5070998;28;20349;-74
2021/04/29 05:00:47;;;;;;;44.83;30.42;;;9.40;99.90;;;;;;5068145;28;20052;-74
2021/04/29 05:03:14;;;;;;;47.40;32.33;;;9.40;99.90;;;;;;5068659;28;20059;-74
2021/04/29 05:05:42;;;;;;;53.95;35.25;;;9.30;99.90;;;;;;5050734;28;20057;-73
2021/04/29 05:08:08;;;;;;;51.40;35.97;;;9.40;99.90;;;;;;5066101;28;20083;-73
2021/04/29 05:10:36;;;;;;;57.83;35.10;;;9.30;99.90;;;;;;5068074;28;20060;-73
2021/04/29 05:13:04;;;;;;;54.58;35.33;;;9.30;99.90;;;;;;5066746;28;20051;-74
2021/04/29 05:15:31;;;;;;;56.80;36.30;;;9.30;99.90;;;;;;5068670;28;20040;-73
2021/04/29 05:17:58;;;;;;;55.42;36.30;;;9.30;99.90;;;;;;5067563;28;20210;-74
2021/04/29 05:20:25;;;;;;;56.78;36.42;;;9.30;99.90;;;;;;5066816;28;20328;-74
2021/04/29 05:22:51;;;;;;;54.75;36.38;;;9.30;99.90;;;;;;5050481;28;20053;-74
2021/04/29 05:25:18;;;;;;;54.95;35.85;;;9.30;99.90;;;;;;5067921;28;20135;-75
2021/04/29 05:27:45;;;;;;;53.90;35.97;;;9.30;99.90;;;;;;5068370;28;20084;-74
2021/04/29 05:30:12;;;;;;;54.70;36.45;;;9.30;99.90;;;;;;5067281;28;20134;-74
2021/04/29 05:32:38;;;;;;;56.83;37.38;;;9.40;99.90;;;;;;5063434;28;20529;-75
2021/04/29 05:35:05;;;;;;;52.45;36.25;;;9.30;99.90;;;;;;5065678;28;20041;-74
2021/04/29 05:37:31;;;;;;;54.42;34.70;;;9.30;99.90;;;;;;5063911;28;20132;-74
2021/04/29 05:39:58;;;;;;;54.40;36.08;;;9.40;99.90;;;;;;5067017;28;20045;-74
2021/04/29 05:42:24;;;;;;;50.50;34.50;;;9.40;99.90;;;;;;5068004;28;20135;-74
2021/04/29 05:44:51;;;;;;;56.03;36.90;;;9.40;99.90;;;;;;5066972;28;20056;-75
2021/04/29 05:47:17;;;;;;;54.75;35.70;;;9.50;99.90;;;;;;5067269;28;20048;-74
2021/04/29 05:49:43;;;;;;;51.78;34.15;;;9.50;99.90;;;;;;5069504;28;20532;-74
2021/04/29 05:52:11;;;;;;;46.55;32.60;;;9.60;99.90;;;;;;5071560;28;20424;-74
2021/04/29 05:54:37;;;;;;;45.75;30.33;;;9.50;99.90;;;;;;5037795;28;20044;-74
2021/04/29 05:57:04;;;;;;;45.85;33.55;;;9.50;99.90;;;;;;5089797;28;20056;-74
2021/04/29 05:59:32;;;;;;;54.35;36.03;;;9.60;99.90;;;;;;5081480;28;20060;-74
2021/04/29 06:01:58;;;;;;;51.03;33.58;;;9.70;99.90;;;;;;5075404;28;20057;-74
2021/04/29 06:04:39;;;;;;;52.45;34.15;;;9.70;99.90;;;;;;5066123;28;20052;-74
2021/04/29 06:07:06;;;;;;;61.97;37.75;;;9.60;99.90;;;;;;5068875;28;20153;-73
2021/04/29 06:09:33;;;;;;;49.55;33.53;;;9.80;99.90;;;;;;5071539;28;20048;-74
2021/04/29 06:12:00;;;;;;;54.90;36.28;;;9.90;99.90;;;;;;5050270;28;20054;-75
2021/04/29 06:14:27;;;;;;;53.83;35.28;;;9.90;99.90;;;;;;5067126;28;20056;-74
2021/04/29 06:16:53;;;;;;;58.60;37.15;;;9.80;99.90;;;;;;5068250;28;20045;-74
2021/04/29 06:19:20;;;;;;;58.00;37.63;;;9.70;99.90;;;;;;5068570;28;20052;-75
2021/04/29 06:21:46;;;;;;;65.30;39.47;;;9.70;99.90;;;;;;5054484;28;20053;-75
2021/04/29 06:24:13;;;;;;;60.58;38.80;;;9.70;99.90;;;;;;5047801;28;20094;-75
2021/04/29 06:26:41;;;;;;;63.97;39.72;;;9.80;99.90;;;;;;5046301;28;20071;-75
2021/04/29 06:29:08;;;;;;;62.70;40.05;;;9.70;99.90;;;;;;5050427;28;20502;-74
2021/04/29 06:31:37;;;;;;;56.53;37.75;;;9.80;99.90;;;;;;5066433;28;20072;-75
2021/04/29 06:34:04;;;;;;;52.50;35.47;;;9.90;99.90;;;;;;5076192;28;20458;-75
2021/04/29 06:36:31;;;;;;;56.00;36.10;;;9.80;99.90;;;;;;5063599;28;20068;-76
2021/04/29 06:38:58;;;;;;;54.78;36.72;;;9.80;99.90;;;;;;5064429;28;20049;-74
2021/04/29 06:41:25;;;;;;;48.72;31.55;;;10.00;99.90;;;;;;5068492;28;20131;-73
2021/04/29 06:43:51;;;;;;;48.92;33.03;;;10.00;99.90;;;;;;5071812;28;20134;-74
2021/04/29 06:46:18;;;;;;;53.97;36.50;;;10.00;99.90;;;;;;5079798;28;20534;-74
2021/04/29 06:48:44;;;;;;;51.03;34.25;;;10.00;99.90;;;;;;5086242;28;20056;-74
2021/04/29 06:51:11;;;;;;;51.38;33.20;;;10.00;99.90;;;;;;5085609;28;20668;-75
2021/04/29 06:53:57;;;;;;;47.22;30.63;;;10.10;99.90;;;;;;5068758;28;20048;-75
2021/04/29 06:56:24;;;;;;;39.75;27.95;;;10.20;99.90;;;;;;5076259;28;20404;-74
2021/04/29 06:59:06;;;;;;;41.67;30.05;;;10.30;99.90;;;;;;5066182;28;20053;-74
2021/04/29 07:01:33;;;;;;;39.13;28.15;;;10.30;99.90;;;;;;5066908;28;20144;-75
2021/04/29 07:04:00;;;;;;;32.03;24.65;;;10.30;99.90;;;;;;5067168;28;20056;-74
2021/04/29 07:06:27;;;;;;;36.63;26.30;;;10.40;99.90;;;;;;5065390;28;20052;-74
2021/04/29 07:09:00;;;;;;;31.20;24.58;;;10.50;99.90;;;;;;5046754;28;20128;-74
2021/04/29 07:11:28;;;;;;;37.22;26.20;;;10.50;99.90;;;;;;5062927;28;20123;-74
2021/04/29 07:13:54;;;;;;;34.38;24.75;;;10.60;99.90;;;;;;5076512;28;20425;-75
2021/04/29 07:16:21;;;;;;;34.38;25.25;;;10.50;99.90;;;;;;5062287;28;20044;-74
2021/04/29 07:18:48;;;;;;;38.05;27.70;;;10.50;99.90;;;;;;5057155;28;20784;-74
2021/04/29 07:21:14;;;;;;;34.65;25.83;;;10.50;99.90;;;;;;5049974;28;20673;-75
2021/04/29 07:23:41;;;;;;;33.88;25.10;;;10.50;99.90;;;;;;5068283;28;20139;-75
2021/04/29 07:26:16;;;;;;;34.10;26.08;;;10.60;99.90;;;;;;5061554;28;20424;-76
2021/04/29 07:28:43;;;;;;;40.13;25.80;;;10.70;99.90;;;;;;5064533;28;20049;-75
2021/04/29 07:31:11;;;;;;;35.25;25.80;;;10.70;99.90;;;;;;5049057;28;20052;-75
2021/04/29 07:33:39;;;;;;;36.90;26.45;;;10.70;99.90;;;;;;5034500;28;20043;-75
2021/04/29 07:36:07;;;;;;;38.17;25.77;;;10.80;99.90;;;;;;5065928;28;20228;-75
2021/04/29 07:38:34;;;;;;;29.02;23.00;;;10.80;99.90;;;;;;5072200;28;20065;-75
2021/04/29 07:41:00;;;;;;;31.58;24.50;;;10.90;99.90;;;;;;5068476;28;20129;-75
2021/04/29 07:43:27;;;;;;;31.20;24.27;;;10.90;99.90;;;;;;5064739;28;20044;-74
2021/04/29 07:45:54;;;;;;;33.45;24.52;;;10.90;99.90;;;;;;5045559;28;20341;-74
2021/04/29 07:48:21;;;;;;;28.50;22.35;;;10.90;99.90;;;;;;5059733;28;20072;-74
2021/04/29 07:50:48;;;;;;;30.25;22.73;;;10.90;99.90;;;;;;5030462;28;20041;-74
2021/04/29 07:53:14;;;;;;;27.80;23.65;;;11.00;99.90;;;;;;5059563;28;20057;-75
2021/04/29 07:55:41;;;;;;;27.55;22.17;;;11.00;99.90;;;;;;5066607;28;20075;-75
2021/04/29 07:58:07;;;;;;;30.63;23.95;;;11.00;99.90;;;;;;5064078;28;20052;-75
2021/04/29 08:00:51;;;;;;;27.98;23.52;;;11.00;99.90;;;;;;5059384;28;20048;-74
2021/04/29 08:03:18;;;;;;;26.15;20.83;;;11.00;99.90;;;;;;5045658;28;20055;-75
2021/04/29 08:05:46;;;;;;;31.73;24.40;;;11.10;99.90;;;;;;5066370;28;20533;-75
2021/04/29 08:08:12;;;;;;;25.35;19.88;;;11.10;99.90;;;;;;5064095;28;20048;-75
2021/04/29 08:10:42;;;;;;;26.55;20.23;;;11.00;99.90;;;;;;5071650;28;20048;-74
2021/04/29 08:13:10;;;;;;;23.88;19.98;;;10.90;99.90;;;;;;5069061;28;20066;-75
2021/04/29 08:15:42;;;;;;;29.45;22.13;;;10.90;99.90;;;;;;5062676;28;20158;-75
2021/04/29 08:18:09;;;;;;;27.20;22.98;;;10.90;99.90;;;;;;5048158;28;20393;-75
2021/04/29 08:20:36;;;;;;;30.35;22.40;;;11.00;99.90;;;;;;5033015;28;20135;-75
2021/04/29 08:23:03;;;;;;;21.27;18.02;;;11.10;99.90;;;;;;5050172;28;20056;-75
2021/04/29 08:25:30;;;;;;;24.95;19.65;;;11.20;99.90;;;;;;5054033;28;20224;-75
2021/04/29 08:27:58;;;;;;;27.02;20.25;;;11.30;99.90;;;;;;5037637;28;20135;-74
2021/04/29 08:30:28;;;;;;;22.60;19.80;;;11.40;99.90;;;;;;5034621;28;20088;-74
2021/04/29 08:33:12;;;;;;;26.35;20.98;;;11.50;99.90;;;;;;5057900;28;20090;-73
2021/04/29 08:35:39;;;;;;;23.98;21.13;;;11.80;99.90;;;;;;5064915;28;20044;-73
2021/04/29 08:38:05;;;;;;;23.00;19.50;;;11.90;99.90;;;;;;5066334;28;20083;-74
2021/04/29 08:40:32;;;;;;;24.52;20.85;;;12.10;99.90;;;;;;5061935;28;20606;-74
2021/04/29 08:42:58;;;;;;;26.52;19.60;;;12.30;99.90;;;;;;5067602;28;20067;-74
2021/04/29 08:45:25;;;;;;;22.85;17.52;;;12.60;99.90;;;;;;5065157;28;20126;-74
2021/04/29 08:47:55;;;;;;;20.15;17.88;;;13.00;99.90;;;;;;5052017;28;20044;-74
2021/04/29 08:50:24;;;;;;;24.23;19.42;;;13.30;99.90;;;;;;5054195;28;20338;-73
2021/04/29 08:52:51;;;;;;;22.98;20.17;;;13.60;99.90;;;;;;5068830;28;20052;-74
2021/04/29 08:55:20;;;;;;;23.80;21.33;;;13.30;99.90;;;;;;5069022;28;20053;-74
2021/04/29 08:57:47;;;;;;;27.25;20.65;;;13.20;99.90;;;;;;5068740;28;20404;-73
2021/04/29 09:00:15;;;;;;;23.95;21.63;;;13.20;99.90;;;;;;5044848;28;20045;-73
2021/04/29 09:02:43;;;;;;;24.77;22.13;;;13.30;99.90;;;;;;5051788;28;20056;-73
2021/04/29 09:05:14;;;;;;;25.67;21.60;;;13.40;99.90;;;;;;5066170;28;20058;-73
2021/04/29 09:07:56;;;;;;;28.23;25.40;;;13.40;99.90;;;;;;5068229;28;20056;-74
2021/04/29 09:10:29;;;;;;;30.27;23.50;;;13.40;99.90;;;;;;5068279;28;20080;-73
2021/04/29 09:12:57;;;;;;;27.52;24.65;;;13.40;99.90;;;;;;5068831;28;20076;-74
2021/04/29 09:15:24;;;;;;;29.80;26.52;;;13.30;99.90;;;;;;5033377;28;20067;-69
2021/04/29 09:18:04;;;;;;;29.30;26.20;;;13.00;99.90;;;;;;5069114;28;20057;-72
2021/04/29 09:20:32;;;;;;;34.42;27.98;;;12.90;99.90;;;;;;5068474;28;20052;-72
2021/04/29 09:23:00;;;;;;;29.58;26.77;;;13.20;99.90;;;;;;5066616;28;20063;-72
2021/04/29 09:25:26;;;;;;;30.05;27.00;;;13.30;99.90;;;;;;5068962;28;20094;-72
2021/04/29 09:27:53;;;;;;;31.10;27.83;;;13.20;99.90;;;;;;5068760;28;20139;-72
2021/04/29 09:30:24;;;;;;;33.03;29.40;;;13.00;99.90;;;;;;5068298;28;20053;-74
2021/04/29 09:32:50;;;;;;;33.78;28.63;;;12.90;99.90;;;;;;5047756;28;20045;-72
2021/04/29 09:35:19;;;;;;;33.33;27.83;;;13.00;99.90;;;;;;5069374;28;20814;-74
2021/04/29 09:37:48;;;;;;;33.30;26.40;;;13.30;99.90;;;;;;5066416;28;20064;-74
2021/04/29 09:40:29;;;;;;;30.85;27.48;;;13.60;99.90;;;;;;5056720;28;20098;-73
2021/04/29 09:42:58;;;;;;;33.88;27.67;;;14.00;99.90;;;;;;5064837;28;20064;-74
2021/04/29 09:45:34;;;;;;;31.25;25.70;;;14.40;99.90;;;;;;5046623;28;20059;-75
2021/04/29 09:48:09;;;;;;;31.67;25.58;;;14.30;99.90;;;;;;5048677;28;20124;-75
2021/04/29 09:50:41;;;;;;;31.42;24.70;;;14.20;99.90;;;;;;5065809;28;20048;-75
2021/04/29 09:53:14;;;;;;;28.35;24.17;;;14.20;99.90;;;;;;5069527;28;20052;-74
2021/04/29 09:55:44;;;;;;;26.92;22.02;;;14.10;99.90;;;;;;5066574;28;20405;-75
2021/04/29 09:58:16;;;;;;;24.75;22.08;;;14.30;99.90;;;;;;5065606;28;20093;-74
2021/04/29 10:00:48;;;;;;;24.50;21.95;;;14.50;99.90;;;;;;5073046;28;20056;-75
2021/04/29 10:03:16;;;;;;;26.70;23.95;;;14.80;99.90;;;;;;5059976;28;20049;-75
2021/04/29 10:05:43;;;;;;;24.15;21.52;;;14.90;99.90;;;;;;5056393;28;20097;-74
2021/04/29 10:08:14;;;;;;;25.63;22.95;;;15.10;99.90;;;;;;5040774;28;20048;-74
2021/04/29 10:10:45;;;;;;;30.80;27.60;;;15.50;99.90;;;;;;5066814;28;20051;-74
2021/04/29 10:13:11;;;;;;;30.10;26.98;;;14.80;99.90;;;;;;5067555;28;20079;-74
2021/04/29 10:15:39;;;;;;;43.10;36.08;;;14.30;99.90;;;;;;5033759;28;20032;-73
2021/04/29 10:18:08;;;;;;;43.75;39.00;;;13.90;99.90;;;;;;5065183;28;20440;-73
2021/04/29 10:20:39;;;;;;;47.75;38.35;;;13.60;99.90;;;;;;5087853;28;20191;-73
2021/04/29 10:23:10;;;;;;;49.28;41.03;;;13.50;99.90;;;;;;5078897;28;20052;-74
2021/04/29 10:25:36;;;;;;;50.65;40.58;;;13.30;99.90;;;;;;5065997;28;20210;-74
2021/04/29 10:28:04;;;;;;;56.75;43.95;;;13.30;99.90;;;;;;5067242;28;20084;-73
2021/04/29 10:30:37;;;;;;;48.03;40.42;;;13.80;99.90;;;;;;5065450;28;20060;-74
2021/04/29 10:33:15;;;;;;;39.40;31.90;;;14.40;99.90;;;;;;5046721;28;20203;-73
2021/04/29 10:35:52;;;;;;;40.47;35.20;;;14.30;99.90;;;;;;5044110;28;20107;-74
2021/04/29 10:38:29;;;;;;;41.88;36.42;;;14.40;99.90;;;;;;5065533;28;20059;-74
2021/04/29 10:40:58;;;;;;;49.92;41.70;;;14.40;99.90;;;;;;5061361;28;20076;-75
2021/04/29 10:43:32;;;;;;;59.30;43.25;;;14.30;99.90;;;;;;5062177;28;20072;-74
2021/04/29 10:46:02;;;;;;;58.33;45.20;;;14.10;99.90;;;;;;5049959;28;20473;-74
2021/04/29 10:48:30;;;;;;;58.08;47.15;;;14.10;99.90;;;;;;5047652;28;20064;-74
2021/04/29 10:51:09;;;;;;;58.08;48.78;;;14.00;99.90;;;;;;5046012;28;20131;-73
2021/04/29 10:53:36;;;;;;;49.95;41.58;;;14.30;99.90;;;;;;5047451;28;20132;-73
2021/04/29 10:56:16;;;;;;;45.00;40.10;;;14.40;99.90;;;;;;5059114;28;20106;-72
2021/04/29 10:58:42;;;;;;;42.63;36.90;;;14.50;99.90;;;;;;5066321;28;20044;-73
2021/04/29 11:01:19;;;;;;;39.17;35.08;;;14.10;99.90;;;;;;5066723;28;20066;-73
2021/04/29 11:03:50;;;;;;;38.85;34.47;;;13.90;99.90;;;;;;5067173;28;20159;-73
2021/04/29 11:06:25;;;;;;;39.75;34.83;;;13.80;99.90;;;;;;5049167;28;20067;-73
2021/04/29 11:08:54;;;;;;;40.42;35.72;;;14.10;99.90;;;;;;5068040;28;20483;-73
2021/04/29 11:11:36;;;;;;;45.58;39.17;;;14.00;99.90;;;;;;5067776;28;20044;-73
2021/04/29 11:14:06;;;;;;;48.15;41.65;;;13.90;99.90;;;;;;5064537;28;20064;-73
2021/04/29 11:17:02;;;;;;;58.15;48.95;;;13.70;99.90;;;;;;5067920;28;20054;-73
2021/04/29 11:19:35;;;;;;;63.03;51.80;;;14.20;99.90;;;;;;5050863;28;20139;-72
2021/04/29 11:22:08;;;;;;;61.30;50.72;;;14.00;99.90;;;;;;5065913;28;20052;-73
2021/04/29 11:24:43;;;;;;;52.08;45.15;;;14.10;99.90;;;;;;5064555;28;20122;-72
2021/04/29 11:27:26;;;;;;;56.03;46.85;;;14.20;99.90;;;;;;5064985;28;20467;-73
2021/04/29 11:30:02;;;;;;;55.53;48.40;;;14.10;99.90;;;;;;5065795;28;20126;-73
2021/04/29 11:32:32;;;;;;;53.70;47.10;;;14.00;99.90;;;;;;5065259;28;20068;-73
2021/04/29 11:35:04;;;;;;;54.15;42.50;;;14.00;99.90;;;;;;5061758;28;20056;-73
2021/04/29 11:37:42;;;;;;;52.72;43.90;;;13.90;99.90;;;;;;5056700;28;20057;-73
2021/04/29 11:40:13;;;;;;;53.65;45.70;;;13.70;99.90;;;;;;5065231;28;20056;-73
2021/04/29 11:42:43;;;;;;;50.45;42.97;;;13.60;99.90;;;;;;5066249;28;20131;-73
2021/04/29 11:45:13;;;;;;;55.67;45.38;;;13.10;99.90;;;;;;5059887;28;20052;-73
2021/04/29 11:47:59;;;;;;;55.38;47.00;;;12.90;99.90;;;;;;5050941;28;20083;-73
2021/04/29 11:50:30;;;;;;;62.75;52.15;;;13.10;99.90;;;;;;5051088;28;20409;-73
2021/04/29 11:53:08;;;;;;;59.63;48.08;;;13.00;99.90;;;;;;5051375;28;20057;-73
2021/04/29 11:55:36;;;;;;;62.33;49.67;;;13.40;99.90;;;;;;5057896;28;20131;-73
2021/04/29 11:58:05;;;;;;;58.83;49.75;;;13.80;99.90;;;;;;5039283;28;20183;-73
2021/04/29 12:00:37;;;;;;;51.63;44.55;;;14.10;99.90;;;;;;5050028;28;20055;-73
2021/04/29 12:03:07;;;;;;;61.45;51.13;;;14.20;99.90;;;;;;5050024;28;20045;-73
2021/04/29 12:05:44;;;;;;;61.45;48.25;;;14.40;99.90;;;;;;5032512;28;20568;-73
2021/04/29 12:08:19;;;;;;;60.30;49.13;;;14.50;99.90;;;;;;5067692;28;20541;-72
2021/04/29 12:10:59;;;;;;;60.25;47.80;;;14.50;99.90;;;;;;5059019;28;20103;-72
2021/04/29 12:13:28;;;;;;;57.72;46.42;;;14.30;99.90;;;;;;5048932;28;20607;-72
2021/04/29 12:16:00;;;;;;;58.45;46.25;;;14.20;99.90;;;;;;5060239;28;20174;-71
2021/04/29 12:18:27;;;;;;;54.72;45.28;;;14.20;99.90;;;;;;5066970;28;20087;-71
2021/04/29 12:20:54;;;;;;;60.03;49.33;;;14.10;99.90;;;;;;5073223;28;20048;-71
2021/04/29 12:23:21;;;;;;;64.90;51.08;;;13.80;99.90;;;;;;5084515;28;20049;-71
2021/04/29 12:25:58;;;;;;;63.88;51.58;;;13.60;99.90;;;;;;5060217;28;20139;-71
2021/04/29 12:28:36;;;;;;;59.38;47.70;;;13.60;99.90;;;;;;5060603;28;20131;-71
2021/04/29 12:31:17;;;;;;;59.45;47.20;;;13.50;99.90;;;;;;5049329;28;20102;-72
2021/04/29 12:34:05;;;;;;;56.65;42.90;;;13.30;99.90;;;;;;5069046;28;20048;-71
2021/04/29 12:36:47;;;;;;;45.92;39.65;;;13.20;99.90;;;;;;5067815;28;20055;-71
2021/04/29 12:39:15;;;;;;;44.75;38.90;;;13.30;99.90;;;;;;5065687;28;20060;-72
2021/04/29 12:42:09;;;;;;;43.22;38.25;;;13.70;99.90;;;;;;5061548;28;20069;-72
2021/04/29 12:44:45;;;;;;;41.80;36.47;;;14.20;99.90;;;;;;5069328;28;20048;-71